Terminal Aerodrome Forecast
Issued by NWS Fort Wayne, IN

Home | Current Version | Previous Version | Graphics & Text | Print | Product List | Glossary Off
Versions: 1 2 3 4 5 6 7 8 9 10 11 12 13 14 15

000
FTUS43 KIWX 020100 AAA
TAFFWA
TAF AMD
KFWA 020143Z 0202/0224 18012KT P6SM BKN250
     FM021000 18016G22KT P6SM VCSH BKN050 WS018/21045KT
     FM021500 21018G28KT 5SM -SHRA VCTS BKN025 OVC050CB
      TEMPO 0219/0223 3SM SHRA OVC015
     FM022300 24015G25KT 4SM -SHRA BKN020=

USA.gov is the U.S. government's official web portal to all federal, state and local government web resources and services.